Fort Wayne International Airport
KFWA : rendu visible

Aérodrome :











RETROUVEZ-NOUS SUR...

 
LOGIN :

S'inscrire | Disclaimer

   EN    FR    IT 

 









Légende :    VFR   VFR Marginal   IFR   IFR Intensif   IFR Très Intensif
Visi : 
Plafond : 
>= 8 km
>= 3000ft
5 à 8 km
1000 à 3000 ft
1500m à 5 km
500 à 1000 ft
800 à 1500m
200 à 500 ft
< 800m
< 200 ft
Symboles :   Orages  Brouillard  Fortes neiges  Fortes précipitations  Vent > 20 kt






- Altitude de l'aérodrome : 814 ft
- Code IATA : FWA


KFWA - Fort Wayne International

DERNIER METAR :
  • 191554Z 22005KT 10SM OVC022 04/00 A2981 RMK AO2 SLP101 T00440000

METARs EXPIRÉS :
  • 191454Z 21004KT 9SM FEW014 OVC025 04/01 A2981 RMK AO2 SLP101 T00390006 51012
  • 191354Z 19003KT 7SM OVC023 03/01 A2981 RMK AO2 SLP099 T00280011
  • 191317Z 18003KT 3SM BR OVC024 03/02 A2980 RMK AO2 T00280017

TAF KFWA
Valide du 19 à 15h jusqu'au 20 à 12h UTC


191502Z 1915/2012 20003KT P6SM SCT010 OVC025
TEMPO 1915/1917 4SM BR BKN010



MET'MAP, la Météo Aéronautique d'un coup d'oeil ! - Copyright ORBIFLY Décembre 2007 - Disclaimer

ORBIFLY MET'MAP TEAM :

Programmation & Développement : Alexandra Zaïnal
Conception & Développement : Baudouin d'Aumeries
Co-Programmation & Développement : Marc-Olivier Méhu
Soutien technique & logistique : Manuel Goepfert

Contact : metmap@orbifly.com




SOURCES & CREDITS :

   NOAA       Earth
Advisory